createdAt,value
2022-10-10T00:00:54.227Z,9.89
2022-10-10T00:03:20.820Z,9.89
2022-10-10T00:05:48.335Z,9.88
2022-10-10T00:08:15.034Z,9.83
2022-10-10T00:10:41.787Z,9.83
2022-10-10T00:13:08.500Z,9.81
2022-10-10T00:15:35.158Z,9.78
2022-10-10T00:18:03.296Z,9.74
2022-10-10T00:20:29.952Z,9.71
2022-10-10T00:22:56.680Z,9.66
2022-10-10T00:25:23.394Z,9.65
2022-10-10T00:27:50.025Z,9.66
2022-10-10T00:30:16.871Z,9.65
2022-10-10T00:32:43.592Z,9.61
2022-10-10T00:35:10.405Z,9.57
2022-10-10T00:37:37.108Z,9.55
2022-10-10T00:40:05.193Z,9.48
2022-10-10T00:42:31.850Z,9.40
2022-10-10T00:45:20.150Z,9.35
2022-10-10T00:47:47.911Z,9.32
2022-10-10T00:50:14.850Z,9.33
2022-10-10T00:52:41.523Z,9.31
2022-10-10T00:55:08.428Z,9.26
2022-10-10T00:57:35.150Z,9.24
2022-10-10T01:00:04.388Z,9.18
2022-10-10T01:02:31.132Z,9.13
2022-10-10T01:04:57.817Z,9.06
2022-10-10T01:07:28.406Z,9.04
2022-10-10T01:09:59.113Z,9.09
2022-10-10T01:12:38.164Z,9.04
2022-10-10T01:15:10.890Z,9.03
2022-10-10T01:17:58.988Z,9.04
2022-10-10T01:20:43.467Z,9.02
2022-10-10T01:23:43.529Z,8.99
2022-10-10T01:26:40.584Z,9.00
2022-10-10T01:29:30.174Z,9.02
2022-10-10T01:32:04.744Z,8.99
2022-10-10T01:34:37.271Z,9.02
2022-10-10T01:37:09.651Z,9.07
2022-10-10T01:39:57.671Z,9.09
2022-10-10T01:42:55.365Z,9.09
2022-10-10T01:45:23.485Z,9.10
2022-10-10T01:47:50.970Z,9.10
2022-10-10T01:50:21.736Z,9.12
2022-10-10T01:53:20.663Z,9.14
2022-10-10T01:55:47.237Z,9.16
2022-10-10T01:58:40.987Z,9.13
2022-10-10T02:01:26.354Z,9.10
2022-10-10T02:04:31.927Z,9.14
2022-10-10T02:07:15.037Z,9.16
2022-10-10T02:09:44.223Z,9.17
2022-10-10T02:12:13.982Z,9.16
2022-10-10T02:14:43.801Z,9.15
2022-10-10T02:17:13.122Z,9.13
2022-10-10T02:19:44.614Z,9.13
2022-10-10T02:22:11.588Z,9.12
2022-10-10T02:24:38.335Z,9.10
2022-10-10T02:27:19.997Z,9.08
2022-10-10T02:29:47.974Z,9.06
2022-10-10T02:32:30.081Z,9.03
2022-10-10T02:35:02.670Z,9.02
2022-10-10T02:37:30.785Z,9.06
2022-10-10T02:40:02.239Z,9.09
2022-10-10T02:42:30.235Z,9.09
2022-10-10T02:44:57.696Z,9.11
2022-10-10T02:47:24.420Z,9.12
2022-10-10T02:49:51.217Z,9.10
2022-10-10T02:52:18.217Z,9.09
2022-10-10T02:54:45.056Z,9.11
2022-10-10T02:57:12.370Z,9.14
2022-10-10T02:59:39.080Z,9.13
2022-10-10T03:02:06.493Z,9.12
2022-10-10T03:04:34.054Z,9.09
2022-10-10T03:07:00.698Z,9.11
2022-10-10T03:09:27.278Z,9.10
2022-10-10T03:11:53.916Z,9.10
2022-10-10T03:14:20.630Z,9.09
2022-10-10T03:16:47.230Z,9.10
2022-10-10T03:19:13.862Z,9.14
2022-10-10T03:21:40.515Z,9.13
2022-10-10T03:24:07.130Z,9.14
2022-10-10T03:26:34.278Z,9.13
2022-10-10T03:29:02.803Z,9.15
2022-10-10T03:31:29.899Z,9.16
2022-10-10T03:33:56.749Z,9.16
2022-10-10T03:36:23.685Z,9.19
2022-10-10T03:38:50.399Z,9.21
2022-10-10T03:41:17.125Z,9.21
2022-10-10T03:43:43.810Z,9.22
2022-10-10T03:46:15.074Z,9.23
2022-10-10T03:48:42.844Z,9.22
2022-10-10T03:51:09.808Z,9.25
2022-10-10T03:53:37.081Z,9.26
2022-10-10T03:56:04.199Z,9.26
2022-10-10T03:58:30.881Z,9.27
2022-10-10T04:01:00.162Z,9.25
2022-10-10T04:03:28.139Z,9.24
2022-10-10T04:05:55.316Z,9.26
2022-10-10T04:08:22.893Z,9.24
2022-10-10T04:10:53.757Z,9.26
2022-10-10T04:13:21.602Z,9.31
2022-10-10T04:15:52.882Z,9.26
2022-10-10T04:18:19.901Z,9.25
2022-10-10T04:20:46.708Z,9.22
2022-10-10T04:23:13.431Z,9.22
2022-10-10T04:25:40.417Z,9.25
2022-10-10T04:28:07.089Z,9.26
2022-10-10T04:30:35.145Z,9.27
2022-10-10T04:33:01.792Z,9.29
2022-10-10T04:35:28.708Z,9.27
2022-10-10T04:37:55.364Z,9.27
2022-10-10T04:40:26.367Z,9.28
2022-10-10T04:42:53.736Z,9.30
2022-10-10T04:45:20.766Z,9.32
2022-10-10T04:47:47.510Z,9.32
2022-10-10T04:50:14.151Z,9.31
2022-10-10T04:52:40.796Z,9.29
2022-10-10T04:55:07.752Z,9.29
2022-10-10T04:57:34.386Z,9.32
2022-10-10T05:00:01.049Z,9.32
2022-10-10T05:02:27.724Z,9.30
2022-10-10T05:04:54.371Z,9.24
2022-10-10T05:07:21.487Z,9.25
2022-10-10T05:09:48.186Z,9.29
2022-10-10T05:12:14.800Z,9.32
2022-10-10T05:14:45.871Z,9.32
2022-10-10T05:17:14.980Z,9.34
2022-10-10T05:19:41.628Z,9.36
2022-10-10T05:22:08.293Z,9.35
2022-10-10T05:24:35.006Z,9.37
2022-10-10T05:27:01.648Z,9.40
2022-10-10T05:29:28.337Z,9.42
2022-10-10T05:31:54.971Z,9.42
2022-10-10T05:34:21.679Z,9.41
2022-10-10T05:36:48.348Z,9.40
2022-10-10T05:39:15.040Z,9.39
2022-10-10T05:41:41.714Z,9.38
2022-10-10T05:44:08.472Z,9.38
2022-10-10T05:46:35.122Z,9.40
2022-10-10T05:49:01.793Z,9.41
2022-10-10T05:51:28.444Z,9.41
2022-10-10T05:53:55.796Z,9.41
2022-10-10T05:56:23.417Z,9.41
2022-10-10T05:58:51.437Z,9.43
2022-10-10T06:01:18.177Z,9.45
2022-10-10T06:03:44.870Z,9.47
2022-10-10T06:06:11.482Z,9.50
2022-10-10T06:08:38.104Z,9.54
2022-10-10T06:11:15.997Z,9.59
2022-10-10T06:13:43.405Z,9.64
2022-10-10T06:16:10.342Z,9.66
2022-10-10T06:18:37.280Z,9.69
2022-10-10T06:21:05.996Z,9.73
2022-10-10T06:23:34.084Z,9.76
2022-10-10T06:26:00.750Z,9.81
2022-10-10T06:28:27.457Z,9.83
2022-10-10T06:30:54.113Z,9.90
2022-10-10T06:33:20.818Z,9.94
2022-10-10T06:35:49.060Z,9.92
2022-10-10T06:38:16.882Z,9.98
2022-10-10T06:40:44.243Z,10.01
2022-10-10T06:43:12.717Z,10.09
2022-10-10T06:45:44.210Z,10.17
2022-10-10T06:48:12.765Z,10.20
2022-10-10T06:50:39.456Z,10.25
2022-10-10T06:53:06.661Z,10.23
2022-10-10T06:55:33.306Z,10.24
2022-10-10T06:57:59.980Z,10.24
2022-10-10T07:00:26.724Z,10.27
2022-10-10T07:02:53.785Z,10.28
2022-10-10T07:05:20.740Z,10.29
2022-10-10T07:07:47.501Z,10.31
2022-10-10T07:10:15.767Z,10.32
2022-10-10T07:12:44.925Z,10.33
2022-10-10T07:15:12.248Z,10.40
2022-10-10T07:17:38.921Z,10.49
2022-10-10T07:20:05.924Z,10.54
2022-10-10T07:22:33.141Z,10.57
2022-10-10T07:24:59.844Z,10.60
2022-10-10T07:31:09.864Z,10.66
2022-10-10T07:33:46.051Z,10.71
2022-10-10T07:36:15.727Z,10.77
2022-10-10T07:38:42.360Z,10.86
2022-10-10T07:41:12.004Z,10.92
2022-10-10T07:43:39.399Z,10.95
2022-10-10T07:46:13.039Z,11.02
2022-10-10T07:48:40.128Z,11.13
2022-10-10T07:51:07.810Z,11.20
2022-10-10T07:53:34.572Z,11.24
2022-10-10T07:56:04.403Z,11.25
2022-10-10T07:58:31.077Z,11.09
2022-10-10T08:01:10.125Z,11.09
2022-10-10T08:03:36.966Z,11.12
2022-10-10T08:06:09.353Z,11.08
2022-10-10T08:08:43.787Z,11.00
2022-10-10T08:11:17.539Z,11.03
2022-10-10T08:13:44.218Z,11.16
2022-10-10T08:16:10.908Z,11.34
2022-10-10T08:18:37.768Z,11.40
2022-10-10T08:21:07.073Z,11.33
2022-10-10T08:23:34.042Z,11.47
2022-10-10T08:26:07.331Z,11.54
2022-10-10T08:28:35.127Z,11.59
2022-10-10T08:31:09.555Z,11.55
2022-10-10T08:33:36.506Z,11.56
2022-10-10T08:36:10.486Z,11.81
2022-10-10T08:38:37.515Z,12.15
2022-10-10T08:41:10.398Z,12.33
2022-10-10T08:43:44.686Z,12.49
2022-10-10T08:46:20.854Z,12.88
2022-10-10T08:48:50.836Z,12.83
2022-10-10T08:51:32.686Z,12.84
2022-10-10T08:54:04.222Z,13.27
2022-10-10T08:56:33.220Z,13.30
2022-10-10T08:59:28.186Z,13.56
2022-10-10T09:02:19.201Z,13.81
2022-10-10T09:04:48.172Z,13.76
2022-10-10T09:07:31.932Z,13.95
2022-10-10T09:10:22.985Z,13.79
2022-10-10T09:13:20.798Z,13.85
2022-10-10T09:16:04.283Z,13.82
2022-10-10T09:19:24.367Z,13.85
2022-10-10T09:21:56.625Z,13.71
2022-10-10T09:24:46.628Z,13.81
2022-10-10T09:27:20.346Z,14.10
2022-10-10T09:30:18.242Z,14.26
2022-10-10T09:32:47.301Z,14.49
2022-10-10T09:35:20.567Z,14.59
2022-10-10T09:37:51.259Z,14.69
2022-10-10T09:40:26.680Z,14.74
2022-10-10T09:42:53.693Z,14.92
2022-10-10T09:45:23.020Z,14.79
2022-10-10T09:47:54.303Z,14.77
2022-10-10T09:50:21.886Z,14.91
2022-10-10T09:52:49.600Z,15.20
2022-10-10T09:55:27.152Z,15.42
2022-10-10T09:57:56.858Z,15.17
2022-10-10T10:00:36.214Z,15.51
2022-10-10T10:03:13.184Z,14.78
2022-10-10T10:05:43.723Z,15.47
2022-10-10T10:08:25.920Z,15.40
2022-10-10T10:10:52.937Z,15.58
2022-10-10T10:13:25.330Z,15.68
2022-10-10T10:16:02.384Z,15.49
2022-10-10T10:18:30.745Z,15.73
2022-10-10T10:21:03.438Z,15.55
2022-10-10T10:23:36.040Z,15.77
2022-10-10T10:26:06.582Z,15.92
2022-10-10T10:28:42.974Z,15.13
2022-10-10T10:31:44.831Z,15.70
2022-10-10T10:34:17.427Z,15.92
2022-10-10T10:36:58.358Z,15.86
2022-10-10T10:39:47.845Z,16.12
2022-10-10T10:42:36.095Z,16.08
2022-10-10T10:45:25.926Z,15.87
2022-10-10T10:48:20.782Z,16.15
2022-10-10T10:50:54.419Z,15.94
2022-10-10T10:53:30.674Z,16.18
2022-10-10T10:56:03.491Z,15.90
2022-10-10T10:59:10.398Z,15.86
2022-10-10T11:01:56.751Z,15.88
2022-10-10T11:05:21.946Z,15.93
2022-10-10T11:07:58.257Z,15.98
2022-10-10T11:10:27.980Z,15.69
2022-10-10T11:13:16.369Z,15.73
2022-10-10T11:16:24.273Z,15.72
2022-10-10T11:18:50.993Z,15.83
2022-10-10T11:21:23.350Z,16.05
2022-10-10T11:24:02.963Z,15.74
2022-10-10T11:26:38.687Z,15.90
2022-10-10T11:29:12.419Z,16.01
2022-10-10T11:31:52.449Z,15.99
2022-10-10T11:34:25.132Z,15.96
2022-10-10T11:36:56.329Z,16.00
2022-10-10T11:39:47.780Z,15.98
2022-10-10T11:42:32.945Z,15.96
2022-10-10T11:45:02.902Z,16.04
2022-10-10T11:47:40.189Z,16.03
2022-10-10T11:50:22.120Z,15.96
2022-10-10T11:53:05.449Z,15.88
2022-10-10T11:55:55.422Z,15.79
2022-10-10T11:58:43.997Z,15.65
2022-10-10T12:01:28.341Z,15.70
2022-10-10T12:03:57.320Z,15.59
2022-10-10T12:06:29.300Z,15.57
2022-10-10T12:09:08.644Z,15.49
2022-10-10T12:11:42.354Z,15.48
2022-10-10T12:14:13.948Z,15.63
2022-10-10T12:16:40.825Z,15.72
2022-10-10T12:19:25.084Z,15.77
2022-10-10T12:22:05.027Z,15.74
2022-10-10T12:25:16.100Z,15.68
2022-10-10T12:28:01.196Z,15.73
2022-10-10T12:30:28.400Z,15.77
2022-10-10T12:32:55.611Z,15.91
2022-10-10T12:35:31.026Z,15.88
2022-10-10T12:38:12.820Z,15.91
2022-10-10T12:41:15.368Z,15.90
2022-10-10T12:44:11.121Z,15.87
2022-10-10T12:46:37.830Z,15.87
2022-10-10T12:49:20.043Z,15.88
2022-10-10T12:52:11.314Z,15.94
2022-10-10T12:54:44.043Z,15.83
2022-10-10T12:57:33.814Z,15.82
2022-10-10T13:00:21.152Z,15.76
2022-10-10T13:03:03.187Z,15.72
2022-10-10T13:05:35.065Z,15.73
2022-10-10T13:08:11.399Z,15.69
2022-10-10T13:10:38.036Z,15.64
2022-10-10T13:13:18.988Z,15.73
2022-10-10T13:15:53.438Z,15.73
2022-10-10T13:18:56.788Z,15.77
2022-10-10T13:21:32.264Z,15.69
2022-10-10T13:24:03.751Z,15.73
2022-10-10T13:26:37.642Z,15.69
2022-10-10T13:29:27.214Z,15.58
2022-10-10T13:31:58.408Z,15.58
2022-10-10T13:34:29.735Z,15.67
2022-10-10T13:36:58.802Z,15.53
2022-10-10T13:39:27.349Z,15.47
2022-10-10T13:41:55.341Z,15.48
2022-10-10T13:44:25.106Z,15.42
2022-10-10T13:46:52.366Z,15.36
2022-10-10T13:49:28.307Z,15.31
2022-10-10T13:52:04.547Z,15.23
2022-10-10T13:54:46.300Z,15.17
2022-10-10T13:57:19.351Z,15.10
2022-10-10T13:59:49.270Z,15.09
2022-10-10T14:02:19.151Z,15.02
2022-10-10T14:04:52.864Z,14.98
2022-10-10T14:07:24.176Z,14.96
2022-10-10T14:09:55.626Z,14.99
2022-10-10T14:12:36.036Z,14.88
2022-10-10T14:15:04.917Z,14.82
2022-10-10T14:17:31.730Z,14.75
2022-10-10T14:19:58.389Z,14.71
2022-10-10T14:22:25.034Z,14.68
2022-10-10T14:24:51.623Z,14.62
2022-10-10T14:27:25.027Z,14.72
2022-10-10T14:29:53.356Z,14.59
2022-10-10T14:32:20.740Z,14.51
2022-10-10T14:34:47.851Z,14.52
2022-10-10T14:37:19.971Z,14.38
2022-10-10T14:39:47.391Z,14.29
2022-10-10T14:42:15.612Z,14.27
2022-10-10T14:44:42.291Z,14.32
2022-10-10T14:47:20.732Z,14.24
2022-10-10T14:49:48.067Z,14.16
2022-10-10T14:52:15.741Z,14.12
2022-10-10T14:54:42.432Z,14.18
2022-10-10T14:57:12.182Z,14.09
2022-10-10T14:59:48.166Z,14.02
2022-10-10T15:02:20.957Z,13.94
2022-10-10T15:04:47.792Z,13.93
2022-10-10T15:07:15.325Z,13.96
2022-10-10T15:10:11.188Z,13.95
2022-10-10T15:12:36.029Z,14.02
2022-10-10T15:15:03.872Z,14.04
2022-10-10T15:17:33.786Z,13.85
2022-10-10T15:20:01.851Z,13.76
2022-10-10T15:22:30.335Z,13.67
2022-10-10T15:24:57.230Z,13.60
2022-10-10T15:27:23.974Z,13.48
2022-10-10T15:29:50.697Z,13.44
2022-10-10T15:32:17.378Z,13.35
2022-10-10T15:34:44.005Z,13.30
2022-10-10T15:37:10.756Z,13.22
2022-10-10T15:39:37.805Z,13.12
2022-10-10T15:42:12.716Z,13.06
2022-10-10T15:44:46.275Z,12.98
2022-10-10T15:47:17.474Z,12.91
2022-10-10T15:49:44.231Z,12.88
2022-10-10T15:52:11.228Z,12.82
2022-10-10T15:54:37.935Z,12.82
2022-10-10T15:57:04.988Z,12.76
2022-10-10T15:59:32.158Z,12.66
2022-10-10T16:01:58.915Z,12.59
2022-10-10T16:04:26.585Z,12.53
2022-10-10T16:07:19.341Z,12.46
2022-10-10T16:09:41.099Z,12.42
2022-10-10T16:12:07.910Z,12.43
2022-10-10T16:14:35.013Z,12.43
2022-10-10T16:17:01.804Z,12.40
2022-10-10T16:19:28.723Z,12.36
2022-10-10T16:21:55.400Z,12.29
2022-10-10T16:24:22.128Z,12.26
2022-10-10T16:26:48.861Z,12.22
2022-10-10T16:29:18.591Z,12.13
2022-10-10T16:31:45.610Z,12.04
2022-10-10T16:34:15.211Z,12.01
2022-10-10T16:36:41.882Z,11.92
2022-10-10T16:39:08.591Z,11.82
2022-10-10T16:41:47.595Z,11.73
2022-10-10T16:44:15.660Z,11.70
2022-10-10T16:46:42.421Z,11.66
2022-10-10T16:49:11.807Z,11.65
2022-10-10T16:51:38.535Z,11.63
2022-10-10T16:54:06.001Z,11.57
2022-10-10T16:56:33.135Z,11.55
2022-10-10T16:59:00.615Z,11.50
2022-10-10T17:01:27.873Z,11.44
2022-10-10T17:03:55.093Z,11.40
2022-10-10T17:06:23.408Z,11.36
2022-10-10T17:08:52.732Z,11.31
2022-10-10T17:11:21.593Z,11.15
2022-10-10T17:13:49.002Z,11.17
2022-10-10T17:17:07.110Z,11.18
2022-10-10T17:19:05.685Z,11.15
2022-10-10T17:21:32.799Z,11.10
2022-10-10T17:23:59.473Z,11.06
2022-10-10T17:26:27.998Z,11.04
2022-10-10T17:28:56.562Z,11.02
2022-10-10T17:31:24.517Z,10.99
2022-10-10T17:33:54.277Z,10.98
2022-10-10T17:36:23.886Z,10.93
2022-10-10T17:38:51.038Z,10.90
2022-10-10T17:41:18.625Z,10.91
2022-10-10T17:43:45.947Z,10.86
2022-10-10T17:46:34.240Z,10.86
2022-10-10T17:49:04.849Z,10.78
2022-10-10T17:51:31.541Z,10.80
2022-10-10T17:54:02.937Z,10.80
2022-10-10T17:56:29.828Z,10.80
2022-10-10T17:58:56.559Z,10.79
2022-10-10T18:01:23.333Z,10.76
2022-10-10T18:03:50.163Z,10.75
2022-10-10T18:06:21.736Z,10.74
2022-10-10T18:08:50.293Z,10.74
2022-10-10T18:11:20.035Z,10.71
2022-10-10T18:13:47.323Z,10.72
2022-10-10T18:16:17.188Z,10.73
2022-10-10T18:18:50.389Z,10.73
2022-10-10T18:21:29.632Z,10.73
2022-10-10T18:23:56.680Z,10.69
2022-10-10T18:26:26.678Z,10.68
2022-10-10T18:28:55.901Z,10.71
2022-10-10T18:31:33.351Z,10.69
2022-10-10T18:34:01.058Z,10.65
2022-10-10T18:36:30.949Z,10.66
2022-10-10T18:38:59.521Z,10.67
2022-10-10T18:41:32.845Z,10.71
2022-10-10T18:44:04.707Z,10.72
2022-10-10T18:46:32.155Z,10.73
2022-10-10T18:48:59.954Z,10.73
2022-10-10T18:51:29.710Z,10.71
2022-10-10T18:54:07.914Z,10.72
2022-10-10T18:56:37.135Z,10.69
2022-10-10T18:59:06.474Z,10.66
2022-10-10T19:01:36.470Z,10.61
2022-10-10T19:04:04.993Z,10.61
2022-10-10T19:06:32.167Z,10.58
2022-10-10T19:08:59.980Z,10.54
2022-10-10T19:11:35.336Z,10.50
2022-10-10T19:14:04.246Z,10.49
2022-10-10T19:16:31.908Z,10.47
2022-10-10T19:18:59.991Z,10.47
2022-10-10T19:21:33.276Z,10.42
2022-10-10T19:24:01.353Z,10.40
2022-10-10T19:26:33.350Z,10.38
2022-10-10T19:29:06.504Z,10.35
2022-10-10T19:31:33.692Z,10.33
2022-10-10T19:34:00.761Z,10.32
2022-10-10T19:36:27.881Z,10.32
2022-10-10T19:38:55.746Z,10.32
2022-10-10T19:41:22.644Z,10.33
2022-10-10T19:43:52.289Z,10.30
2022-10-10T19:46:22.203Z,10.26
2022-10-10T19:48:50.480Z,10.22
2022-10-10T19:51:19.379Z,10.18
2022-10-10T19:53:46.536Z,10.17
2022-10-10T19:56:16.388Z,10.14
2022-10-10T19:58:43.281Z,10.12
2022-10-10T20:01:12.882Z,10.08
2022-10-10T20:03:39.891Z,10.07
2022-10-10T20:06:07.159Z,10.06
2022-10-10T20:08:34.494Z,10.04
2022-10-10T20:11:01.278Z,10.03
2022-10-10T20:13:27.992Z,10.02
2022-10-10T20:16:00.098Z,9.99
2022-10-10T20:18:27.204Z,9.99
2022-10-10T20:20:53.865Z,9.95
2022-10-10T20:23:23.736Z,9.94
2022-10-10T20:25:51.172Z,9.94
2022-10-10T20:28:19.217Z,9.91
2022-10-10T20:30:50.978Z,9.92
2022-10-10T20:33:19.451Z,9.87
2022-10-10T20:35:48.545Z,9.87
2022-10-10T20:38:16.872Z,9.86
2022-10-10T20:40:44.732Z,9.81
2022-10-10T20:43:12.449Z,9.83
2022-10-10T20:45:40.160Z,9.82
2022-10-10T20:48:07.737Z,9.81
2022-10-10T20:50:36.216Z,9.78
2022-10-10T20:53:02.866Z,9.80
2022-10-10T20:55:29.590Z,9.81
2022-10-10T20:57:56.274Z,9.77
2022-10-10T21:00:22.979Z,9.77
2022-10-10T21:02:49.778Z,9.76
2022-10-10T21:05:17.179Z,9.77
2022-10-10T21:07:45.917Z,9.77
2022-10-10T21:10:12.639Z,9.79
2022-10-10T21:12:39.292Z,9.80
2022-10-10T21:15:06.479Z,9.80
2022-10-10T21:17:33.138Z,9.73
2022-10-10T21:19:59.909Z,9.72
2022-10-10T21:22:26.511Z,9.72
2022-10-10T21:24:53.248Z,9.70
2022-10-10T21:27:19.849Z,9.70
2022-10-10T21:29:46.549Z,9.70
2022-10-10T21:32:13.161Z,9.70
2022-10-10T21:34:39.828Z,9.66
2022-10-10T21:37:06.626Z,9.64
2022-10-10T21:39:33.370Z,9.61
2022-10-10T21:41:59.968Z,9.58
2022-10-10T21:44:26.677Z,9.57
2022-10-10T21:46:53.312Z,9.57
2022-10-10T21:49:20.013Z,9.53
2022-10-10T21:51:46.809Z,9.54
2022-10-10T21:54:13.908Z,9.52
2022-10-10T21:56:40.917Z,9.49
2022-10-10T21:59:08.059Z,9.47
2022-10-10T22:01:34.794Z,9.44
2022-10-10T22:04:02.491Z,9.45
2022-10-10T22:06:30.138Z,9.41
2022-10-10T22:08:58.939Z,9.38
2022-10-10T22:11:27.607Z,9.31
2022-10-10T22:13:54.821Z,9.29
2022-10-10T22:16:21.666Z,9.28
2022-10-10T22:18:52.513Z,9.22
2022-10-10T22:21:19.152Z,9.18
2022-10-10T22:23:45.871Z,9.16
2022-10-10T22:26:14.821Z,9.13
2022-10-10T22:28:41.651Z,9.10
2022-10-10T22:31:10.114Z,9.03
2022-10-10T22:33:36.830Z,9.01
2022-10-10T22:36:05.065Z,8.98
2022-10-10T22:38:32.863Z,8.93
2022-10-10T22:40:59.661Z,8.87
2022-10-10T22:43:27.312Z,8.85
2022-10-10T22:45:54.599Z,8.82
2022-10-10T22:48:21.296Z,8.84
2022-10-10T22:50:48.007Z,8.84
2022-10-10T22:53:14.714Z,8.84
2022-10-10T22:55:41.624Z,8.83
2022-10-10T22:58:09.159Z,8.83
2022-10-10T23:00:35.933Z,8.80
2022-10-10T23:03:02.599Z,8.79
2022-10-10T23:05:29.312Z,8.79
2022-10-10T23:07:55.971Z,8.82
2022-10-10T23:10:22.701Z,8.77
2022-10-10T23:12:49.340Z,8.75
2022-10-10T23:15:16.033Z,8.73
2022-10-10T23:17:42.751Z,8.70
2022-10-10T23:20:09.888Z,8.70
2022-10-10T23:22:36.578Z,8.69
2022-10-10T23:25:03.892Z,8.66
2022-10-10T23:27:30.560Z,8.67
2022-10-10T23:29:57.282Z,8.65
2022-10-10T23:32:26.815Z,8.65
2022-10-10T23:34:53.471Z,8.65
2022-10-10T23:37:20.118Z,8.69
2022-10-10T23:39:46.839Z,8.64
2022-10-10T23:42:13.486Z,8.64
2022-10-10T23:44:40.256Z,8.63
2022-10-10T23:47:06.920Z,8.62
2022-10-10T23:49:33.675Z,8.61
2022-10-10T23:52:00.315Z,8.58
2022-10-10T23:54:26.976Z,8.62
2022-10-10T23:56:53.693Z,8.61
2022-10-10T23:59:20.416Z,8.58
